Time;durP1;ratioP1;P1;durP2;ratioP2;P2;SDS_P1;SDS_P2;PMS_P1;PMS_P2;Temp;Humidity;BMP_temperature;BMP_pressure;BME280_temperature;BME280_humidity;BME280_pressure;Samples;Min_cycle;Max_cycle;Signal;HPM_P1;HPM_P2
2022/01/17 00:00:10;;;;;;;19.20;12.90;;;6.00;1.00;;;;;;5065030;28;20191;-61
2022/01/17 00:02:36;;;;;;;18.53;12.43;;;6.00;1.00;;;;;;5073870;28;20220;-61
2022/01/17 00:05:02;;;;;;;15.93;11.80;;;5.90;1.00;;;;;;5073070;28;20465;-62
2022/01/17 00:07:30;;;;;;;16.07;11.00;;;;;;;;;;5073399;28;20452;-60
2022/01/17 00:09:56;;;;;;;14.90;11.67;;;6.00;1.00;;;;;;5058855;28;20961;-60
2022/01/17 00:12:22;;;;;;;16.80;12.77;;;6.00;1.00;;;;;;5071995;28;20448;-60
2022/01/17 00:14:48;;;;;;;18.20;12.87;;;5.90;1.00;;;;;;5072713;28;20529;-60
2022/01/17 00:19:45;;;;;;;16.40;11.50;;;5.90;1.00;;;;;;5072237;28;20189;-60
2022/01/17 00:22:14;;;;;;;14.47;9.80;;;5.90;1.00;;;;;;5076576;28;20911;-60
2022/01/17 00:24:41;;;;;;;14.90;10.90;;;5.90;1.00;;;;;;5059465;28;20518;-64
2022/01/17 00:27:07;;;;;;;19.40;12.90;;;;;;;;;;5053382;28;20445;-64
2022/01/17 00:29:33;;;;;;;17.33;11.67;;;5.90;1.00;;;;;;5075335;28;20434;-64
2022/01/17 00:31:59;;;;;;;17.30;11.47;;;;;;;;;;5068903;28;20446;-63
2022/01/17 00:34:26;;;;;;;18.80;12.47;;;5.90;1.00;;;;;;5072002;28;20454;-64
2022/01/17 00:36:52;;;;;;;16.63;11.33;;;5.90;1.00;;;;;;5057424;28;20468;-65
2022/01/17 00:39:18;;;;;;;19.97;12.57;;;5.90;1.00;;;;;;5071592;28;20590;-63
2022/01/17 00:41:43;;;;;;;14.27;10.60;;;5.90;1.00;;;;;;5071317;28;20528;-64
2022/01/17 00:44:09;;;;;;;17.10;11.20;;;6.00;1.00;;;;;;5070735;28;20462;-64
2022/01/17 00:46:35;;;;;;;16.90;10.63;;;6.00;1.00;;;;;;5072340;28;20186;-64
2022/01/17 00:49:01;;;;;;;14.57;11.87;;;6.00;1.00;;;;;;5071555;28;20811;-65
2022/01/17 00:51:27;;;;;;;18.33;11.83;;;5.90;1.00;;;;;;5073009;28;20181;-64
2022/01/17 00:53:52;;;;;;;18.87;11.53;;;6.00;1.00;;;;;;5070165;28;20515;-64
2022/01/17 00:56:19;;;;;;;15.37;11.00;;;5.90;1.00;;;;;;5056870;28;20208;-64
2022/01/17 00:58:45;;;;;;;16.20;11.17;;;5.90;1.00;;;;;;5072156;28;20195;-64
2022/01/17 01:01:11;;;;;;;13.53;11.50;;;;;;;;;;5062519;28;20445;-64
2022/01/17 01:03:37;;;;;;;15.77;10.83;;;5.90;1.00;;;;;;5061087;28;20679;-65
2022/01/17 01:06:03;;;;;;;15.90;11.90;;;5.90;1.00;;;;;;5075106;28;20450;-64
2022/01/17 01:08:29;;;;;;;15.67;11.53;;;5.90;1.00;;;;;;5073738;28;20826;-64
2022/01/17 01:10:55;;;;;;;16.93;12.27;;;;;;;;;;5071485;28;20460;-64
2022/01/17 01:13:23;;;;;;;16.10;12.53;;;6.10;1.00;;;;;;5072437;28;20347;-64
2022/01/17 01:16:10;;;;;;;17.60;11.80;;;;;;;;;;5075247;28;20454;-64
2022/01/17 01:18:49;;;;;;;15.50;10.70;;;6.10;1.00;;;;;;5071247;28;22579;-64
2022/01/17 01:29:13;;;;;;;17.60;11.97;;;;;;;;;;5071834;28;20411;-65
2022/01/17 01:34:15;;;;;;;15.87;11.70;;;;;;;;;;5072772;28;20570;-65
2022/01/17 01:36:41;;;;;;;15.70;11.00;;;6.00;1.00;;;;;;5069643;28;20446;-63
2022/01/17 01:39:08;;;;;;;13.27;11.30;;;6.00;1.00;;;;;;5069932;28;20955;-65
2022/01/17 01:41:39;;;;;;;15.33;10.30;;;6.10;1.00;;;;;;5071808;28;20469;-64
2022/01/17 01:44:11;;;;;;;16.40;11.20;;;6.10;1.00;;;;;;5070093;28;20485;-64
2022/01/17 01:46:37;;;;;;;17.30;11.93;;;;;;;;;;5071284;28;20987;-64
2022/01/17 01:49:03;;;;;;;15.50;11.03;;;6.00;1.00;;;;;;5072133;28;20556;-65
2022/01/17 01:51:28;;;;;;;15.90;11.30;;;6.00;1.00;;;;;;5058746;28;20414;-62
2022/01/17 01:53:54;;;;;;;16.87;11.80;;;6.00;1.00;;;;;;5064883;28;20199;-64
2022/01/17 01:56:19;;;;;;;13.70;10.90;;;6.00;1.00;;;;;;5074172;28;20180;-64
2022/01/17 01:58:45;;;;;;;14.77;11.97;;;;;;;;;;5068617;28;20255;-64
2022/01/17 02:01:11;;;;;;;15.27;12.80;;;5.80;1.00;;;;;;5073043;28;20185;-64
2022/01/17 02:03:37;;;;;;;15.07;11.60;;;;;;;;;;5065741;28;20479;-64
2022/01/17 02:06:03;;;;;;;17.07;11.50;;;;;;;;;;5063666;28;20273;-64
2022/01/17 02:08:30;;;;;;;19.60;12.87;;;5.90;1.00;;;;;;5071176;28;21010;-64
2022/01/17 02:10:56;;;;;;;14.93;10.83;;;;;;;;;;5071005;28;20514;-64
2022/01/17 02:13:21;;;;;;;18.23;12.23;;;5.90;1.00;;;;;;5069478;28;20913;-64
2022/01/17 02:15:48;;;;;;;17.37;11.87;;;6.00;1.00;;;;;;5072172;28;20457;-62
2022/01/17 02:18:22;;;;;;;16.87;11.60;;;6.00;1.00;;;;;;5076393;28;20303;-64
2022/01/17 02:21:10;;;;;;;15.37;12.40;;;;;;;;;;5065399;28;20691;-63
2022/01/17 02:23:33;;;;;;;17.43;12.80;;;6.00;1.00;;;;;;5069858;28;20478;-64
2022/01/17 02:25:59;;;;;;;12.87;11.27;;;6.00;1.00;;;;;;5069804;28;20444;-64
2022/01/17 02:28:25;;;;;;;19.17;11.87;;;6.00;1.00;;;;;;5071485;28;20258;-64
2022/01/17 02:30:51;;;;;;;16.97;11.93;;;;;;;;;;5070438;28;20323;-64
2022/01/17 02:33:18;;;;;;;14.80;11.27;;;6.00;1.00;;;;;;5065383;28;20318;-64
2022/01/17 02:35:47;;;;;;;13.50;11.63;;;5.90;1.00;;;;;;5067640;28;20452;-64
2022/01/17 02:38:13;;;;;;;14.80;11.10;;;;;;;;;;5069665;28;20449;-63
2022/01/17 02:40:39;;;;;;;17.50;12.83;;;;;;;;;;5066355;28;20458;-63
2022/01/17 02:43:06;;;;;;;15.70;10.90;;;5.90;1.00;;;;;;5052313;28;20565;-64
2022/01/17 02:45:36;;;;;;;15.73;10.33;;;5.90;1.00;;;;;;5099782;28;20549;-64
2022/01/17 02:48:07;;;;;;;15.77;11.87;;;6.00;1.00;;;;;;5070622;28;20446;-64
2022/01/17 02:50:34;;;;;;;13.83;10.03;;;6.10;1.00;;;;;;5067904;28;20496;-65
2022/01/17 02:53:08;;;;;;;16.70;10.70;;;6.10;1.00;;;;;;5068895;28;20560;-64
2022/01/17 02:55:33;;;;;;;13.50;10.60;;;6.00;1.00;;;;;;5068545;28;20480;-64
2022/01/17 02:57:59;;;;;;;13.73;9.80;;;;;;;;;;5065173;28;20533;-63
2022/01/17 03:00:25;;;;;;;17.70;10.43;;;6.10;1.00;;;;;;5073282;28;20192;-64
2022/01/17 03:02:51;;;;;;;16.63;11.33;;;6.00;1.00;;;;;;5072643;28;20545;-64
2022/01/17 03:05:17;;;;;;;12.60;10.20;;;5.90;1.00;;;;;;5069928;28;20190;-64
2022/01/17 03:07:43;;;;;;;11.13;8.93;;;5.90;1.00;;;;;;5067548;28;20186;-64
2022/01/17 03:10:18;;;;;;;13.00;8.97;;;;;;;;;;5066793;28;20537;-63
2022/01/17 03:12:44;;;;;;;12.57;9.33;;;;;;;;;;5071499;28;20453;-63
2022/01/17 03:15:10;;;;;;;11.50;8.90;;;5.90;1.00;;;;;;5069048;28;20954;-64
2022/01/17 03:17:35;;;;;;;12.10;8.90;;;5.90;1.00;;;;;;5069101;28;20443;-64
2022/01/17 03:20:01;;;;;;;11.33;9.07;;;6.00;1.00;;;;;;5067256;28;20544;-65
2022/01/17 03:22:27;;;;;;;12.23;9.60;;;;;;;;;;5066972;28;20198;-64
2022/01/17 03:24:53;;;;;;;11.53;8.47;;;;;;;;;;5066145;28;20303;-64
2022/01/17 03:27:19;;;;;;;16.00;8.77;;;;;;;;;;5069879;28;20435;-64
2022/01/17 03:29:44;;;;;;;15.33;10.83;;;6.20;1.00;;;;;;5070291;28;20444;-63
2022/01/17 03:32:10;;;;;;;10.13;8.27;;;;;;;;;;5070555;28;20405;-62
2022/01/17 03:34:38;;;;;;;11.43;9.50;;;6.20;1.00;;;;;;5069305;28;20266;-64
2022/01/17 03:37:03;;;;;;;10.63;8.03;;;6.20;1.00;;;;;;5050782;28;20441;-62
2022/01/17 03:39:29;;;;;;;10.13;7.73;;;;;;;;;;5084772;28;20837;-63
2022/01/17 03:41:55;;;;;;;11.07;8.03;;;6.10;1.00;;;;;;5070172;28;20221;-64
2022/01/17 03:44:21;;;;;;;10.07;8.70;;;;;;;;;;5069593;28;20499;-63
2022/01/17 03:46:46;;;;;;;10.47;8.20;;;6.10;1.00;;;;;;5067569;28;20195;-64
2022/01/17 03:49:12;;;;;;;10.67;8.33;;;6.00;1.00;;;;;;5066901;28;20427;-64
2022/01/17 03:51:38;;;;;;;9.60;8.23;;;;;;;;;;5069667;28;20194;-62
2022/01/17 03:54:04;;;;;;;10.37;8.60;;;;;;;;;;5082492;28;20217;-63
2022/01/17 03:56:29;;;;;;;10.40;9.27;;;6.20;1.00;;;;;;5069882;28;21118;-63
2022/01/17 03:58:55;;;;;;;10.40;7.50;;;;;;;;;;5051130;28;20498;-63
2022/01/17 04:01:21;;;;;;;12.23;8.00;;;6.20;1.00;;;;;;5049568;28;20235;-63
2022/01/17 04:03:47;;;;;;;8.30;7.20;;;;;;;;;;5077645;28;20463;-64
2022/01/17 04:06:16;;;;;;;11.03;7.10;;;;;;;;;;5070928;28;20194;-64
2022/01/17 04:08:42;;;;;;;10.10;7.50;;;6.30;1.00;;;;;;5062018;28;20450;-63
2022/01/17 04:11:08;;;;;;;10.07;6.63;;;6.40;1.00;;;;;;5067481;28;20929;-64
2022/01/17 04:13:35;;;;;;;9.37;7.73;;;6.30;1.00;;;;;;5067117;28;20201;-64
2022/01/17 04:16:01;;;;;;;11.20;6.93;;;6.40;1.00;;;;;;5072155;28;20450;-63
2022/01/17 04:18:27;;;;;;;11.00;7.40;;;;;;;;;;5073041;28;20996;-63
2022/01/17 04:20:53;;;;;;;9.87;7.03;;;6.40;1.00;;;;;;5066171;28;20197;-65
2022/01/17 04:23:19;;;;;;;9.43;6.97;;;6.50;1.00;;;;;;5073652;28;20476;-62
2022/01/17 04:25:45;;;;;;;12.57;7.57;;;6.60;1.00;;;;;;5073979;28;20484;-63
2022/01/17 04:28:12;;;;;;;9.77;7.20;;;6.50;1.00;;;;;;5069498;28;20458;-63
2022/01/17 04:30:39;;;;;;;9.70;6.60;;;6.50;1.00;;;;;;5076485;28;20209;-64
2022/01/17 04:33:05;;;;;;;8.13;6.80;;;8.00;1.00;;;;;;5074732;28;20807;-64
2022/01/17 04:35:32;;;;;;;11.20;7.67;;;6.50;1.00;;;;;;5059965;28;20898;-62
2022/01/17 04:38:04;;;;;;;9.37;7.20;;;6.50;1.00;;;;;;5073586;28;20472;-64
2022/01/17 04:40:35;;;;;;;7.97;6.17;;;6.50;1.00;;;;;;5073063;28;20818;-63
2022/01/17 04:43:04;;;;;;;8.20;6.30;;;6.50;1.00;;;;;;5070787;28;20547;-64
2022/01/17 04:45:30;;;;;;;11.47;6.93;;;6.50;1.00;;;;;;5072234;28;20452;-64
2022/01/17 04:47:55;;;;;;;8.17;6.60;;;6.50;1.00;;;;;;5073383;28;20448;-63
2022/01/17 04:50:24;;;;;;;9.87;6.73;;;6.60;1.00;;;;;;5086922;28;20444;-62
2022/01/17 04:52:50;;;;;;;8.13;6.87;;;6.60;1.00;;;;;;5071904;28;20176;-62
2022/01/17 04:55:18;;;;;;;9.57;5.67;;;6.60;1.00;;;;;;5071451;28;20443;-64
2022/01/17 04:57:45;;;;;;;8.30;6.60;;;6.50;1.00;;;;;;5051757;28;20428;-64
2022/01/17 05:00:13;;;;;;;7.80;6.00;;;6.60;1.00;;;;;;5068850;28;20534;-65
2022/01/17 05:02:39;;;;;;;11.00;5.83;;;6.60;1.00;;;;;;5070274;28;20476;-64
2022/01/17 05:05:05;;;;;;;9.87;5.73;;;;;;;;;;5069029;28;20418;-64
2022/01/17 05:07:34;;;;;;;8.00;5.47;;;6.60;1.00;;;;;;5070386;28;20717;-64
2022/01/17 05:10:00;;;;;;;7.87;5.83;;;6.80;1.00;;;;;;5069614;28;20456;-64
2022/01/17 05:12:28;;;;;;;7.60;5.73;;;6.70;1.00;;;;;;5074139;28;20805;-63
2022/01/17 05:14:54;;;;;;;7.60;6.30;;;6.70;1.00;;;;;;5078310;28;20430;-64
2022/01/17 05:17:38;;;;;;;8.20;5.70;;;6.70;1.00;;;;;;5068148;28;20764;-64
2022/01/17 05:20:05;;;;;;;7.53;5.80;;;6.60;1.00;;;;;;5071126;28;20450;-64
2022/01/17 05:22:33;;;;;;;9.90;6.33;;;6.70;1.00;;;;;;5072899;28;20410;-64
2022/01/17 05:25:06;;;;;;;6.20;5.43;;;6.80;1.00;;;;;;5071937;28;20473;-65
2022/01/17 05:27:32;;;;;;;6.90;5.43;;;6.70;1.00;;;;;;5055533;28;20442;-63
2022/01/17 05:29:58;;;;;;;7.10;4.97;;;;;;;;;;5074295;28;20768;-64
2022/01/17 05:32:24;;;;;;;5.37;4.37;;;6.90;1.00;;;;;;5074135;28;20249;-65
2022/01/17 05:34:50;;;;;;;6.70;4.50;;;;;;;;;;5072489;28;20448;-64
2022/01/17 05:37:16;;;;;;;6.17;5.20;;;6.90;1.00;;;;;;5071473;28;20171;-63
2022/01/17 05:39:42;;;;;;;7.33;6.00;;;6.90;1.00;;;;;;5071993;28;20490;-64
2022/01/17 05:42:09;;;;;;;8.00;5.43;;;;;;;;;;5055305;28;20194;-63
2022/01/17 05:44:35;;;;;;;7.00;5.47;;;6.60;1.00;;;;;;5073495;28;21009;-63
2022/01/17 05:47:02;;;;;;;9.23;4.80;;;6.60;1.00;;;;;;5076042;28;20443;-64
2022/01/17 05:49:27;;;;;;;5.80;4.83;;;6.60;1.00;;;;;;5076569;28;20475;-63
2022/01/17 05:51:53;;;;;;;5.87;4.37;;;;;;;;;;5071622;28;20519;-64
2022/01/17 05:54:19;;;;;;;8.13;4.67;;;6.70;1.00;;;;;;5072677;28;20190;-64
2022/01/17 05:56:44;;;;;;;6.70;5.33;;;6.80;1.00;;;;;;5084700;28;20910;-63
2022/01/17 05:59:10;;;;;;;9.97;6.00;;;;;;;;;;5076852;28;20189;-63
2022/01/17 06:01:42;;;;;;;7.00;4.20;;;6.80;1.00;;;;;;5072636;28;20190;-62
2022/01/17 06:04:08;;;;;;;6.60;4.60;;;6.80;1.00;;;;;;5070710;28;20486;-63
2022/01/17 06:06:33;;;;;;;4.90;4.10;;;6.80;1.00;;;;;;5070941;28;20818;-62
2022/01/17 06:08:59;;;;;;;9.00;5.50;;;;;;;;;;5070254;28;20188;-63
2022/01/17 06:11:25;;;;;;;6.70;4.30;;;6.90;1.00;;;;;;5074333;28;20186;-63
2022/01/17 06:13:50;;;;;;;8.50;5.10;;;6.80;1.00;;;;;;5070501;28;20449;-64
2022/01/17 06:16:16;;;;;;;7.47;5.53;;;6.90;1.00;;;;;;5072830;28;20195;-63
2022/01/17 06:18:41;;;;;;;6.43;5.20;;;6.90;1.00;;;;;;5079303;28;20214;-63
2022/01/17 06:21:07;;;;;;;6.30;4.63;;;6.90;1.00;;;;;;5069964;28;20270;-63
2022/01/17 06:23:33;;;;;;;9.63;6.00;;;;;;;;;;5069891;28;20292;-64
2022/01/17 06:26:02;;;;;;;7.50;5.07;;;6.80;1.00;;;;;;5069204;28;20226;-62
2022/01/17 06:28:27;;;;;;;8.73;5.13;;;6.70;1.00;;;;;;5069550;28;20467;-63
2022/01/17 06:30:53;;;;;;;8.57;5.73;;;6.50;1.00;;;;;;5069724;28;20411;-64
2022/01/17 06:33:19;;;;;;;8.93;6.47;;;;;;;;;;5069575;28;20197;-63
2022/01/17 06:35:45;;;;;;;8.50;6.20;;;;;;;;;;5071144;28;20553;-64
2022/01/17 06:38:10;;;;;;;8.47;5.40;;;6.40;1.00;;;;;;5054187;28;20449;-63
2022/01/17 06:40:36;;;;;;;13.43;6.30;;;6.40;1.00;;;;;;5069465;28;20449;-63
2022/01/17 06:43:01;;;;;;;10.33;6.17;;;6.30;1.00;;;;;;5069857;28;20202;-64
2022/01/17 06:45:27;;;;;;;8.00;6.77;;;;;;;;;;5069744;28;20184;-64
2022/01/17 06:47:53;;;;;;;8.87;5.37;;;6.50;1.00;;;;;;5069894;28;20190;-63
2022/01/17 06:50:19;;;;;;;9.33;5.60;;;;;;;;;;5069224;28;20444;-64
2022/01/17 06:52:45;;;;;;;8.03;5.87;;;;;;;;;;5069785;28;20666;-62
2022/01/17 06:55:11;;;;;;;9.60;6.27;;;6.60;1.00;;;;;;5069806;28;20451;-63
2022/01/17 06:57:37;;;;;;;8.93;6.13;;;6.60;1.00;;;;;;5069801;28;20498;-63
2022/01/17 07:00:08;;;;;;;11.50;6.20;;;6.50;1.00;;;;;;5069718;28;20563;-63
2022/01/17 07:02:34;;;;;;;9.50;7.07;;;6.60;1.00;;;;;;5068802;28;20198;-62
2022/01/17 07:05:00;;;;;;;7.53;6.03;;;6.60;1.00;;;;;;5069670;28;20900;-63
2022/01/17 07:07:25;;;;;;;10.00;6.00;;;6.70;1.00;;;;;;5069992;28;20261;-64
2022/01/17 07:09:51;;;;;;;11.00;5.50;;;6.50;1.00;;;;;;5071616;28;20590;-63
2022/01/17 07:12:16;;;;;;;11.10;5.90;;;6.50;1.00;;;;;;5071139;28;20588;-64
2022/01/17 07:14:42;;;;;;;6.20;5.00;;;;;;;;;;5070207;28;20186;-63
2022/01/17 07:17:11;;;;;;;9.03;5.00;;;6.50;1.00;;;;;;5072110;28;20196;-63
2022/01/17 07:19:38;;;;;;;8.53;5.00;;;6.50;1.00;;;;;;5067830;28;20461;-63
2022/01/17 07:22:05;;;;;;;5.60;4.30;;;6.60;1.00;;;;;;5069304;28;20509;-63
2022/01/17 07:24:31;;;;;;;8.33;4.50;;;;;;;;;;5057180;28;20545;-63
2022/01/17 07:26:56;;;;;;;6.80;3.70;;;6.50;1.00;;;;;;5054640;28;20949;-63
2022/01/17 07:29:23;;;;;;;7.93;5.00;;;;;;;;;;5069373;28;20418;-63
2022/01/17 07:31:48;;;;;;;5.50;4.23;;;6.50;1.00;;;;;;5052395;28;20246;-64
2022/01/17 07:34:14;;;;;;;8.30;4.73;;;;;;;;;;5072043;28;20423;-63
2022/01/17 07:36:40;;;;;;;5.50;4.10;;;6.40;1.00;;;;;;5071832;28;20186;-63
2022/01/17 07:39:06;;;;;;;7.53;4.53;;;6.40;1.00;;;;;;5075870;28;20495;-63
2022/01/17 07:41:32;;;;;;;11.37;4.90;;;;;;;;;;5084698;28;20237;-63
2022/01/17 07:44:00;;;;;;;5.40;4.50;;;6.40;1.00;;;;;;5093208;28;20212;-63
2022/01/17 07:46:34;;;;;;;3.80;2.80;;;6.40;1.00;;;;;;5093520;28;20464;-63
2022/01/17 07:49:13;;;;;;;3.40;3.07;;;6.40;1.00;;;;;;5093319;28;20441;-63
2022/01/17 07:51:42;;;;;;;6.33;4.30;;;6.40;1.00;;;;;;5093389;28;20431;-61
2022/01/17 07:54:10;;;;;;;6.40;4.17;;;6.40;1.00;;;;;;5093256;28;20426;-62
2022/01/17 07:56:37;;;;;;;6.13;4.47;;;6.40;1.00;;;;;;5093415;28;20491;-63
2022/01/17 07:59:05;;;;;;;3.93;3.53;;;6.30;1.00;;;;;;5089058;28;20455;-63
2022/01/17 08:01:31;;;;;;;5.10;3.70;;;;;;;;;;5078253;28;20440;-63
2022/01/17 08:03:57;;;;;;;4.87;4.00;;;6.20;1.00;;;;;;5091958;28;20466;-63
2022/01/17 08:06:23;;;;;;;13.00;4.20;;;;;;;;;;5085686;28;20519;-63
2022/01/17 08:08:48;;;;;;;5.03;3.90;;;6.20;1.00;;;;;;5093169;28;20431;-63
2022/01/17 08:11:15;;;;;;;5.30;3.70;;;6.30;1.00;;;;;;5081845;28;20422;-63
2022/01/17 08:13:41;;;;;;;7.07;4.83;;;6.10;1.00;;;;;;5072794;28;20190;-64
2022/01/17 08:16:07;;;;;;;6.50;4.33;;;6.30;1.00;;;;;;5072729;28;20926;-64
2022/01/17 08:18:33;;;;;;;4.07;3.60;;;6.10;1.00;;;;;;5072897;28;20447;-63
2022/01/17 08:20:59;;;;;;;9.40;4.97;;;;;;;;;;5072795;28;20235;-63
2022/01/17 08:23:25;;;;;;;7.60;4.33;;;6.00;1.00;;;;;;5072227;28;20223;-63
2022/01/17 08:25:51;;;;;;;5.90;3.53;;;6.00;2.80;;;;;;5087793;28;20472;-63
2022/01/17 08:28:17;;;;;;;5.90;5.30;;;;;;;;;;5078046;28;20897;-63
2022/01/17 08:30:43;;;;;;;8.10;5.23;;;5.80;59.00;;;;;;5072182;28;20442;-63
2022/01/17 08:33:09;;;;;;;7.70;5.83;;;;;;;;;;5072404;28;20443;-63
2022/01/17 08:35:34;;;;;;;9.93;5.00;;;5.80;99.90;;;;;;5080751;28;20187;-63
2022/01/17 08:38:00;;;;;;;11.93;4.90;;;5.90;99.90;;;;;;5076879;28;20433;-63
2022/01/17 08:40:26;;;;;;;8.70;4.40;;;5.80;99.90;;;;;;5083018;28;20236;-64
2022/01/17 08:42:53;;;;;;;9.70;4.63;;;5.70;99.90;;;;;;5073805;28;20683;-64
2022/01/17 08:45:21;;;;;;;4.80;3.83;;;5.70;99.90;;;;;;5072082;28;20446;-63
2022/01/17 08:47:49;;;;;;;10.27;4.47;;;5.60;99.90;;;;;;5059002;28;20465;-63
2022/01/17 08:50:17;;;;;;;5.60;3.40;;;5.60;99.90;;;;;;5071980;28;20418;-64
2022/01/17 08:52:47;;;;;;;6.87;3.10;;;5.60;99.90;;;;;;5071670;28;20453;-63
2022/01/17 08:55:14;;;;;;;8.03;3.10;;;5.60;99.90;;;;;;5082716;28;20449;-63
2022/01/17 08:57:40;;;;;;;8.30;3.70;;;5.70;99.90;;;;;;5087151;28;21020;-63
2022/01/17 09:00:50;;;;;;;6.70;3.07;;;5.70;99.90;;;;;;5076058;28;20447;-63
2022/01/17 09:03:16;;;;;;;4.77;2.87;;;5.60;99.90;;;;;;5088347;28;20505;-63
2022/01/17 09:05:41;;;;;;;8.10;3.40;;;5.60;99.90;;;;;;5091907;28;20447;-63
2022/01/17 09:08:08;;;;;;;8.33;2.83;;;5.60;99.90;;;;;;5092160;28;20398;-63
2022/01/17 09:10:35;;;;;;;8.70;3.37;;;5.60;99.90;;;;;;5081900;28;20672;-63
2022/01/17 09:13:00;;;;;;;8.10;3.30;;;5.60;99.90;;;;;;5072986;28;20464;-63
2022/01/17 09:15:27;;;;;;;5.83;3.17;;;5.50;99.90;;;;;;5056862;28;20467;-63
2022/01/17 09:17:53;;;;;;;10.30;2.90;;;;;;;;;;5072054;28;20189;-63
2022/01/17 09:20:19;;;;;;;6.77;3.23;;;5.60;99.90;;;;;;5071823;28;21145;-62
2022/01/17 09:22:45;;;;;;;6.33;2.83;;;5.50;99.90;;;;;;5071501;28;21181;-63
2022/01/17 09:25:11;;;;;;;4.40;3.17;;;5.50;99.90;;;;;;5070763;28;20467;-63
2022/01/17 09:27:37;;;;;;;7.80;3.47;;;;;;;;;;5071179;28;20192;-63
2022/01/17 09:30:07;;;;;;;7.53;3.77;;;5.50;99.90;;;;;;5052953;28;20473;-63
2022/01/17 09:32:33;;;;;;;5.90;3.17;;;;;;;;;;5070972;28;21011;-63
2022/01/17 09:34:58;;;;;;;5.93;3.17;;;5.70;99.90;;;;;;5086307;28;20422;-63
2022/01/17 09:37:24;;;;;;;7.20;2.57;;;5.70;99.90;;;;;;5084667;28;20943;-63
2022/01/17 09:39:50;;;;;;;8.93;3.63;;;;;;;;;;5081461;28;20185;-63
2022/01/17 09:42:16;;;;;;;7.77;3.63;;;;;;;;;;5091461;28;20268;-63
2022/01/17 09:44:42;;;;;;;8.17;3.13;;;5.70;99.90;;;;;;5059576;28;20462;-63
2022/01/17 09:47:10;;;;;;;6.37;2.90;;;5.70;99.90;;;;;;5080975;28;20447;-63
2022/01/17 09:49:57;;;;;;;6.47;2.53;;;5.80;99.90;;;;;;5077422;28;20180;-63
2022/01/17 09:52:34;;;;;;;7.63;2.80;;;5.80;99.90;;;;;;5070612;28;20632;-63
2022/01/17 09:55:08;;;;;;;6.93;2.87;;;5.80;99.90;;;;;;5070901;28;20431;-62
2022/01/17 09:57:55;;;;;;;4.93;2.87;;;5.80;99.90;;;;;;5058702;28;20488;-62
2022/01/17 10:00:26;;;;;;;5.33;2.20;;;5.80;99.90;;;;;;5069779;28;20470;-63
2022/01/17 10:02:57;;;;;;;7.10;3.00;;;5.90;99.90;;;;;;5071560;28;20815;-63
2022/01/17 10:05:24;;;;;;;3.53;2.23;;;6.10;99.90;;;;;;5087235;28;20463;-63
2022/01/17 10:08:06;;;;;;;3.93;2.30;;;6.00;99.90;;;;;;5068352;28;20953;-62
2022/01/17 10:10:57;;;;;;;4.10;2.20;;;6.00;99.90;;;;;;5083626;28;20442;-63
2022/01/17 10:13:26;;;;;;;6.60;1.83;;;;;;;;;;5065477;28;20471;-63
2022/01/17 10:16:02;;;;;;;5.87;2.10;;;6.10;99.90;;;;;;5077069;28;20944;-63
2022/01/17 10:18:56;;;;;;;3.00;2.30;;;6.20;99.90;;;;;;5084089;28;20433;-62
2022/01/17 10:21:41;;;;;;;9.13;2.93;;;6.10;99.90;;;;;;5067825;28;20443;-63
2022/01/17 10:35:10;;;;;;;5.03;1.87;;;6.30;99.90;;;;;;5028925;28;20553;-62
2022/01/17 10:37:35;;;;;;;3.07;1.57;;;6.40;99.90;;;;;;5088270;28;20438;-63
2022/01/17 10:40:05;;;;;;;5.63;2.83;;;6.30;99.90;;;;;;5087726;28;20458;-63
2022/01/17 10:42:42;;;;;;;3.93;2.30;;;6.30;99.90;;;;;;5076602;28;20173;-63
2022/01/17 10:45:14;;;;;;;5.17;2.27;;;6.30;99.90;;;;;;5069663;28;20443;-62
2022/01/17 10:47:43;;;;;;;3.43;1.97;;;6.30;99.90;;;;;;5083008;28;20444;-63
2022/01/17 10:50:19;;;;;;;18.10;3.07;;;6.30;99.90;;;;;;5052115;28;20463;-63
2022/01/17 10:52:48;;;;;;;6.67;2.20;;;6.30;99.90;;;;;;5084504;28;20408;-63
2022/01/17 10:55:17;;;;;;;4.73;3.03;;;6.30;99.90;;;;;;5070299;28;20437;-63
2022/01/17 10:57:45;;;;;;;4.30;2.73;;;6.20;99.90;;;;;;5052104;28;20474;-63
2022/01/17 11:00:29;;;;;;;9.03;2.70;;;6.10;99.90;;;;;;5068996;28;20505;-63
2022/01/17 11:02:58;;;;;;;4.93;2.93;;;6.10;99.90;;;;;;5084621;28;20531;-63
2022/01/17 11:05:27;;;;;;;2.73;2.17;;;6.10;99.90;;;;;;5087958;28;20425;-63
2022/01/17 11:07:55;;;;;;;3.53;2.00;;;6.20;99.90;;;;;;5083990;28;20479;-63
2022/01/17 11:10:27;;;;;;;6.53;2.30;;;6.20;99.90;;;;;;5089591;28;20430;-63
2022/01/17 11:12:56;;;;;;;10.63;2.83;;;6.30;99.90;;;;;;5089959;28;20895;-63
2022/01/17 11:15:23;;;;;;;9.50;3.63;;;6.30;99.90;;;;;;5071985;28;20441;-63
2022/01/17 11:17:56;;;;;;;4.93;2.00;;;;;;;;;;5077028;28;20479;-63
2022/01/17 11:20:27;;;;;;;4.13;2.47;;;6.30;99.90;;;;;;5078080;28;20935;-64
2022/01/17 11:22:56;;;;;;;6.90;1.93;;;6.40;99.90;;;;;;5069771;28;20616;-62
2022/01/17 11:25:25;;;;;;;7.03;2.40;;;6.40;99.90;;;;;;5068638;28;20468;-62
2022/01/17 11:27:52;;;;;;;4.60;2.33;;;6.50;99.90;;;;;;5068172;28;20442;-63
2022/01/17 11:30:18;;;;;;;6.60;2.53;;;6.40;99.90;;;;;;5081063;28;20526;-62
2022/01/17 11:36:09;;;;;;;4.30;2.30;;;6.40;99.90;;;;;;4977238;28;20587;-64
2022/01/17 11:38:40;;;;;;;7.40;3.73;;;6.40;99.90;;;;;;5017003;28;20449;-63
2022/01/17 11:41:21;;;;;;;4.80;3.10;;;6.50;99.90;;;;;;5061579;28;20278;-63
2022/01/17 11:43:58;;;;;;;5.17;2.47;;;6.50;99.90;;;;;;5069149;28;20435;-63
2022/01/17 11:46:27;;;;;;;7.43;2.33;;;6.50;99.90;;;;;;5069495;28;20441;-63
2022/01/17 11:49:00;;;;;;;4.43;2.47;;;6.60;99.90;;;;;;5069374;28;20418;-63
2022/01/17 11:51:46;;;;;;;8.07;2.33;;;6.60;99.90;;;;;;5069444;28;20428;-63
2022/01/17 11:54:14;;;;;;;4.10;2.23;;;6.50;99.90;;;;;;5069667;28;20445;-64
2022/01/17 11:56:44;;;;;;;8.13;2.73;;;6.60;99.90;;;;;;5069036;28;20833;-63
2022/01/17 11:59:38;;;;;;;2.63;2.13;;;6.60;99.90;;;;;;5069393;28;20436;-63
2022/01/17 12:02:14;;;;;;;4.40;2.43;;;6.50;99.90;;;;;;5067314;28;20476;-62
2022/01/17 12:04:40;;;;;;;3.20;2.10;;;;;;;;;;5089425;28;20467;-64
2022/01/17 12:07:05;;;;;;;2.83;2.50;;;6.60;99.90;;;;;;5089638;28;20480;-63
2022/01/17 12:09:31;;;;;;;5.63;2.67;;;6.50;99.90;;;;;;5089581;28;20794;-63
2022/01/17 12:12:03;;;;;;;5.43;2.73;;;6.60;99.90;;;;;;5089431;28;20229;-63
2022/01/17 12:14:32;;;;;;;7.53;3.10;;;6.60;99.90;;;;;;5089009;28;20452;-64
2022/01/17 12:17:20;;;;;;;3.17;2.27;;;6.60;99.90;;;;;;5078203;28;20440;-63
2022/01/17 12:20:04;;;;;;;6.33;3.00;;;6.60;99.90;;;;;;5067917;28;20531;-64
2022/01/17 12:22:57;;;;;;;4.33;3.03;;;6.50;99.90;;;;;;5068984;28;20463;-63
2022/01/17 12:25:26;;;;;;;3.60;2.70;;;6.50;99.90;;;;;;5046733;28;20444;-64
2022/01/17 12:28:04;;;;;;;3.57;3.17;;;6.60;99.90;;;;;;5052317;28;20448;-62
2022/01/17 12:30:41;;;;;;;6.77;3.87;;;6.50;99.90;;;;;;5103086;28;20467;-63
2022/01/17 12:33:11;;;;;;;4.93;4.03;;;6.50;99.90;;;;;;5072143;28;20422;-62
2022/01/17 12:35:45;;;;;;;3.30;3.00;;;6.40;99.90;;;;;;5072703;28;20863;-63
2022/01/17 12:38:28;;;;;;;5.27;2.87;;;6.40;99.90;;;;;;5072487;28;20442;-63
2022/01/17 12:40:54;;;;;;;4.87;2.23;;;6.40;99.90;;;;;;5067454;28;20448;-64
2022/01/17 12:43:24;;;;;;;3.57;2.43;;;6.40;99.90;;;;;;5052172;28;20542;-63
2022/01/17 12:45:59;;;;;;;3.83;2.40;;;6.40;99.90;;;;;;5068150;28;20436;-63
2022/01/17 12:48:26;;;;;;;2.17;1.80;;;6.50;99.90;;;;;;5072384;28;20465;-62
2022/01/17 12:50:53;;;;;;;2.07;1.80;;;6.50;99.90;;;;;;5072466;28;20440;-62
2022/01/17 12:53:21;;;;;;;3.00;1.70;;;6.50;99.90;;;;;;5071723;28;20928;-64
2022/01/17 12:55:52;;;;;;;2.00;1.63;;;6.50;99.90;;;;;;5071899;28;20532;-64
2022/01/17 12:58:18;;;;;;;2.40;1.33;;;;;;;;;;5071937;28;20493;-63
2022/01/17 13:00:54;;;;;;;3.50;2.60;;;6.70;99.90;;;;;;5072028;28;20809;-64
2022/01/17 13:03:21;;;;;;;3.40;2.27;;;6.80;99.90;;;;;;5071718;28;20518;-63
2022/01/17 13:05:48;;;;;;;1.63;1.30;;;6.80;99.90;;;;;;5070506;28;20942;-62
2022/01/17 13:08:14;;;;;;;4.70;1.67;;;5.80;99.90;;;;;;5071738;28;20436;-60
2022/01/17 13:10:40;;;;;;;3.37;1.10;;;5.00;99.90;;;;;;5059062;28;20441;-61
2022/01/17 13:13:07;;;;;;;5.30;1.47;;;4.60;99.90;;;;;;5061795;28;20455;-61
2022/01/17 13:15:33;;;;;;;3.37;1.60;;;4.40;99.90;;;;;;5061272;28;20436;-60
2022/01/17 13:17:59;;;;;;;3.77;1.10;;;;;;;;;;5061514;28;20423;-61
2022/01/17 13:20:26;;;;;;;3.30;1.57;;;4.40;99.90;;;;;;5061867;28;20446;-60
2022/01/17 13:23:06;;;;;;;5.60;1.57;;;4.40;99.90;;;;;;5095902;28;20440;-61
2022/01/17 13:25:31;;;;;;;5.77;2.30;;;4.40;99.90;;;;;;5081858;28;20476;-61
2022/01/17 13:28:02;;;;;;;13.60;3.63;;;4.40;99.90;;;;;;5084662;28;20438;-61
2022/01/17 13:30:33;;;;;;;7.93;1.80;;;4.40;99.90;;;;;;5079790;28;20459;-61
2022/01/17 13:33:03;;;;;;;5.23;1.50;;;4.40;99.90;;;;;;5085641;28;20461;-61
2022/01/17 13:35:30;;;;;;;6.23;1.70;;;4.40;99.90;;;;;;5061347;28;20519;-61
2022/01/17 13:38:21;;;;;;;3.40;1.20;;;4.40;99.90;;;;;;5086672;28;20525;-61
2022/01/17 13:40:53;;;;;;;9.03;3.37;;;4.40;99.90;;;;;;5076788;28;20449;-60
2022/01/17 13:43:19;;;;;;;3.90;1.40;;;;;;;;;;5077213;28;20473;-61
2022/01/17 13:45:47;;;;;;;3.67;1.53;;;4.30;99.90;;;;;;5082773;28;20979;-60
2022/01/17 13:48:19;;;;;;;3.80;1.50;;;4.20;99.90;;;;;;5084863;28;20449;-61